sensor_id;sensor_type;location;lat;lon;timestamp;pressure;altitude;pressure_sealevel;temperature;humidity
19759;BME280;10038;42.662;23.278;2022-09-02T00:00:26;72949.31;;;20.39;92.46
19759;BME280;10038;42.662;23.278;2022-09-02T00:02:54;72937.25;;;20.31;93.28
19759;BME280;10038;42.662;23.278;2022-09-02T00:05:23;72937.97;;;20.34;93.16
19759;BME280;10038;42.662;23.278;2022-09-02T00:07:50;72936.50;;;20.28;93.68
19759;BME280;10038;42.662;23.278;2022-09-02T00:10:16;72916.69;;;20.11;93.46
19759;BME280;10038;42.662;23.278;2022-09-02T00:12:43;72960.38;;;20.48;92.89
19759;BME280;10038;42.662;23.278;2022-09-02T00:15:10;72943.66;;;20.36;93.19
19759;BME280;10038;42.662;23.278;2022-09-02T00:17:37;72927.16;;;20.20;94.67
19759;BME280;10038;42.662;23.278;2022-09-02T00:20:05;72927.31;;;20.22;94.13
19759;BME280;10038;42.662;23.278;2022-09-02T00:22:33;72901.22;;;19.92;95.51
19759;BME280;10038;42.662;23.278;2022-09-02T00:25:00;72905.03;;;20.00;95.66
19759;BME280;10038;42.662;23.278;2022-09-02T00:27:27;72904.59;;;20.02;95.33
19759;BME280;10038;42.662;23.278;2022-09-02T00:29:53;72917.69;;;20.09;95.04
19759;BME280;10038;42.662;23.278;2022-09-02T00:32:20;72927.16;;;20.20;94.65
19759;BME280;10038;42.662;23.278;2022-09-02T00:34:47;72926.00;;;20.19;94.37
19759;BME280;10038;42.662;23.278;2022-09-02T00:37:14;72936.50;;;20.28;93.74
19759;BME280;10038;42.662;23.278;2022-09-02T00:39:42;72918.44;;;20.12;94.46
19759;BME280;10038;42.662;23.278;2022-09-02T00:42:09;72918.44;;;20.12;93.98
19759;BME280;10038;42.662;23.278;2022-09-02T00:44:37;72919.59;;;20.13;93.55
19759;BME280;10038;42.662;23.278;2022-09-02T00:47:03;72927.75;;;20.20;92.98
19759;BME280;10038;42.662;23.278;2022-09-02T00:49:32;72923.25;;;20.19;92.59
19759;BME280;10038;42.662;23.278;2022-09-02T00:52:04;72923.66;;;20.17;92.45
19759;BME280;10038;42.662;23.278;2022-09-02T00:54:35;72882.09;;;19.85;91.96
19759;BME280;10038;42.662;23.278;2022-09-02T00:57:08;72870.13;;;19.70;92.90
19759;BME280;10038;42.662;23.278;2022-09-02T00:59:45;72930.06;;;20.22;92.10
19759;BME280;10038;42.662;23.278;2022-09-02T01:02:12;72927.16;;;20.20;92.18
19759;BME280;10038;42.662;23.278;2022-09-02T01:04:39;72924.84;;;20.18;92.55
19759;BME280;10038;42.662;23.278;2022-09-02T01:07:07;72924.84;;;20.18;92.47
19759;BME280;10038;42.662;23.278;2022-09-02T01:09:38;72912.03;;;20.07;92.83
19759;BME280;10038;42.662;23.278;2022-09-02T01:12:07;72917.53;;;20.07;93.20
19759;BME280;10038;42.662;23.278;2022-09-02T01:14:37;72909.72;;;20.05;93.76
19759;BME280;10038;42.662;23.278;2022-09-02T01:17:03;72899.22;;;19.95;95.19
19759;BME280;10038;42.662;23.278;2022-09-02T01:19:37;72886.56;;;19.87;95.62
19759;BME280;10038;42.662;23.278;2022-09-02T01:22:16;72880.16;;;19.81;95.73
19759;BME280;10038;42.662;23.278;2022-09-02T01:24:43;72874.78;;;19.74;95.23
19759;BME280;10038;42.662;23.278;2022-09-02T01:27:14;72877.41;;;19.81;95.02
19759;BME280;10038;42.662;23.278;2022-09-02T01:29:41;72873.03;;;19.73;94.73
19759;BME280;10038;42.662;23.278;2022-09-02T01:32:08;72877.09;;;19.76;96.12
19759;BME280;10038;42.662;23.278;2022-09-02T01:34:35;72856.16;;;19.58;100.00
19759;BME280;10038;42.662;23.278;2022-09-02T01:37:02;72783.97;;;18.96;100.00
19759;BME280;10038;42.662;23.278;2022-09-02T01:39:30;72814.66;;;19.20;100.00
19759;BME280;10038;42.662;23.278;2022-09-02T01:41:57;72755.63;;;18.73;100.00
19759;BME280;10038;42.662;23.278;2022-09-02T01:44:24;72776.25;;;18.87;100.00
19759;BME280;10038;42.662;23.278;2022-09-02T01:46:51;72757.81;;;18.73;100.00
19759;BME280;10038;42.662;23.278;2022-09-02T01:49:18;72752.41;;;18.66;100.00
19759;BME280;10038;42.662;23.278;2022-09-02T01:51:45;72740.19;;;18.55;100.00
19759;BME280;10038;42.662;23.278;2022-09-02T01:54:12;72746.00;;;18.60;100.00
19759;BME280;10038;42.662;23.278;2022-09-02T01:56:40;72742.13;;;18.59;100.00
19759;BME280;10038;42.662;23.278;2022-09-02T01:59:07;72723.88;;;18.41;100.00
19759;BME280;10038;42.662;23.278;2022-09-02T02:01:36;72711.00;;;18.37;100.00
19759;BME280;10038;42.662;23.278;2022-09-02T02:04:02;72715.50;;;18.39;100.00
19759;BME280;10038;42.662;23.278;2022-09-02T02:06:29;72706.34;;;18.33;100.00
19759;BME280;10038;42.662;23.278;2022-09-02T02:08:56;72718.81;;;18.39;100.00
19759;BME280;10038;42.662;23.278;2022-09-02T02:11:23;72714.16;;;18.35;100.00
19759;BME280;10038;42.662;23.278;2022-09-02T02:13:52;72721.16;;;18.41;100.00
19759;BME280;10038;42.662;23.278;2022-09-02T02:16:18;72721.47;;;18.46;100.00
19759;BME280;10038;42.662;23.278;2022-09-02T02:18:45;72735.72;;;18.54;100.00
19759;BME280;10038;42.662;23.278;2022-09-02T02:21:12;72720.91;;;18.46;100.00
19759;BME280;10038;42.662;23.278;2022-09-02T02:23:39;72720.56;;;18.41;100.00
19759;BME280;10038;42.662;23.278;2022-09-02T02:26:06;72720.00;;;18.40;100.00
19759;BME280;10038;42.662;23.278;2022-09-02T02:28:33;72698.72;;;18.17;100.00
19759;BME280;10038;42.662;23.278;2022-09-02T02:31:01;72745.59;;;18.62;100.00
19759;BME280;10038;42.662;23.278;2022-09-02T02:33:28;72751.97;;;18.68;100.00
19759;BME280;10038;42.662;23.278;2022-09-02T02:35:55;72752.56;;;18.68;100.00
19759;BME280;10038;42.662;23.278;2022-09-02T02:38:23;72752.56;;;18.68;100.00
19759;BME280;10038;42.662;23.278;2022-09-02T02:40:53;72773.19;;;18.81;100.00
19759;BME280;10038;42.662;23.278;2022-09-02T02:43:20;72759.53;;;18.74;100.00
19759;BME280;10038;42.662;23.278;2022-09-02T02:45:47;72763.94;;;18.83;100.00
19759;BME280;10038;42.662;23.278;2022-09-02T02:48:16;72758.56;;;18.76;100.00
19759;BME280;10038;42.662;23.278;2022-09-02T02:50:42;72744.75;;;18.66;100.00
19759;BME280;10038;42.662;23.278;2022-09-02T02:53:10;72724.22;;;18.46;100.00
19759;BME280;10038;42.662;23.278;2022-09-02T02:55:37;72751.16;;;18.72;100.00
19759;BME280;10038;42.662;23.278;2022-09-02T02:58:05;72758.81;;;18.71;100.00
19759;BME280;10038;42.662;23.278;2022-09-02T03:00:32;72752.56;;;18.68;100.00
19759;BME280;10038;42.662;23.278;2022-09-02T03:03:01;72755.47;;;18.71;100.00
19759;BME280;10038;42.662;23.278;2022-09-02T03:05:33;72749.06;;;18.65;100.00
19759;BME280;10038;42.662;23.278;2022-09-02T03:08:03;72743.56;;;18.65;100.00
19759;BME280;10038;42.662;23.278;2022-09-02T03:10:30;72752.56;;;18.68;100.00
19759;BME280;10038;42.662;23.278;2022-09-02T03:12:57;72752.41;;;18.66;100.00
19759;BME280;10038;42.662;23.278;2022-09-02T03:15:25;72740.50;;;18.60;100.00
19759;BME280;10038;42.662;23.278;2022-09-02T03:17:52;72765.38;;;18.79;100.00
19759;BME280;10038;42.662;23.278;2022-09-02T03:20:20;72781.66;;;18.94;100.00
19759;BME280;10038;42.662;23.278;2022-09-02T03:22:49;72778.75;;;18.91;100.00
19759;BME280;10038;42.662;23.278;2022-09-02T03:25:18;72777.41;;;18.88;100.00
19759;BME280;10038;42.662;23.278;2022-09-02T03:27:46;72761.03;;;18.80;100.00
19759;BME280;10038;42.662;23.278;2022-09-02T03:30:15;72756.06;;;18.71;100.00
19759;BME280;10038;42.662;23.278;2022-09-02T03:32:43;72767.72;;;18.81;100.00
19759;BME280;10038;42.662;23.278;2022-09-02T03:35:11;72769.44;;;18.83;100.00
19759;BME280;10038;42.662;23.278;2022-09-02T03:37:40;72770.03;;;18.83;100.00
19759;BME280;10038;42.662;23.278;2022-09-02T03:40:11;72755.63;;;18.73;100.00
19759;BME280;10038;42.662;23.278;2022-09-02T03:42:39;72763.03;;;18.77;100.00
19759;BME280;10038;42.662;23.278;2022-09-02T03:45:07;72763.88;;;18.73;100.00
19759;BME280;10038;42.662;23.278;2022-09-02T03:47:35;72753.75;;;18.69;100.00
19759;BME280;10038;42.662;23.278;2022-09-02T03:50:05;72755.06;;;18.73;100.00
19759;BME280;10038;42.662;23.278;2022-09-02T03:52:32;72757.22;;;18.72;100.00
19759;BME280;10038;42.662;23.278;2022-09-02T03:54:59;72760.72;;;18.75;100.00
19759;BME280;10038;42.662;23.278;2022-09-02T03:57:27;72749.81;;;18.68;100.00
19759;BME280;10038;42.662;23.278;2022-09-02T03:59:53;72775.84;;;18.89;100.00
19759;BME280;10038;42.662;23.278;2022-09-02T04:02:20;72768.09;;;18.79;100.00
19759;BME280;10038;42.662;23.278;2022-09-02T04:04:47;72773.50;;;18.87;100.00
19759;BME280;10038;42.662;23.278;2022-09-02T04:07:14;72723.47;;;18.43;100.00
19759;BME280;10038;42.662;23.278;2022-09-02T04:09:41;72770.78;;;18.87;100.00
19759;BME280;10038;42.662;23.278;2022-09-02T04:12:08;72754.47;;;18.72;100.00
19759;BME280;10038;42.662;23.278;2022-09-02T04:14:36;72777.41;;;18.88;100.00
19759;BME280;10038;42.662;23.278;2022-09-02T04:17:03;72774.66;;;18.88;100.00
19759;BME280;10038;42.662;23.278;2022-09-02T04:19:30;72792.13;;;19.03;100.00
19759;BME280;10038;42.662;23.278;2022-09-02T04:21:56;72799.13;;;19.09;100.00
19759;BME280;10038;42.662;23.278;2022-09-02T04:24:23;72760.41;;;18.70;100.00
19759;BME280;10038;42.662;23.278;2022-09-02T04:26:50;72764.22;;;18.78;100.00
19759;BME280;10038;42.662;23.278;2022-09-02T04:29:17;72758.38;;;18.73;100.00
19759;BME280;10038;42.662;23.278;2022-09-02T04:31:45;72723.88;;;18.41;100.00
19759;BME280;10038;42.662;23.278;2022-09-02T04:34:12;72764.22;;;18.78;100.00
19759;BME280;10038;42.662;23.278;2022-09-02T04:36:39;72757.66;;;18.70;100.00
19759;BME280;10038;42.662;23.278;2022-09-02T04:39:06;72764.63;;;18.76;100.00
19759;BME280;10038;42.662;23.278;2022-09-02T04:41:34;72732.81;;;18.51;100.00
19759;BME280;10038;42.662;23.278;2022-09-02T04:44:03;72733.63;;;18.47;100.00
19759;BME280;10038;42.662;23.278;2022-09-02T04:46:31;72771.19;;;18.84;100.00
19759;BME280;10038;42.662;23.278;2022-09-02T04:48:59;72761.88;;;18.76;100.00
19759;BME280;10038;42.662;23.278;2022-09-02T04:51:26;72754.91;;;18.70;100.00
19759;BME280;10038;42.662;23.278;2022-09-02T04:53:53;72758.81;;;18.71;100.00
19759;BME280;10038;42.662;23.278;2022-09-02T04:56:22;72763.03;;;18.77;100.00
19759;BME280;10038;42.662;23.278;2022-09-02T04:58:49;72768.84;;;18.82;100.00
19759;BME280;10038;42.662;23.278;2022-09-02T05:01:19;72781.06;;;18.93;100.00
19759;BME280;10038;42.662;23.278;2022-09-02T05:03:47;72785.16;;;18.97;100.00
19759;BME280;10038;42.662;23.278;2022-09-02T05:06:17;72781.97;;;18.99;100.00
19759;BME280;10038;42.662;23.278;2022-09-02T05:08:45;72789.81;;;19.01;100.00
19759;BME280;10038;42.662;23.278;2022-09-02T05:11:14;72806.81;;;19.18;100.00
19759;BME280;10038;42.662;23.278;2022-09-02T05:13:43;72807.25;;;19.16;100.00
19759;BME280;10038;42.662;23.278;2022-09-02T05:16:13;72816.56;;;19.24;100.00
19759;BME280;10038;42.662;23.278;2022-09-02T05:18:40;72806.22;;;19.17;100.00
19759;BME280;10038;42.662;23.278;2022-09-02T05:21:07;72813.06;;;19.21;100.00
19759;BME280;10038;42.662;23.278;2022-09-02T05:23:35;72816.88;;;19.29;100.00
19759;BME280;10038;42.662;23.278;2022-09-02T05:26:02;72830.38;;;19.33;100.00
19759;BME280;10038;42.662;23.278;2022-09-02T05:28:29;72833.03;;;19.40;100.00
19759;BME280;10038;42.662;23.278;2022-09-02T05:31:02;72838.09;;;19.42;100.00
19759;BME280;10038;42.662;23.278;2022-09-02T05:33:30;72832.59;;;19.42;100.00
19759;BME280;10038;42.662;23.278;2022-09-02T05:35:57;72840.75;;;19.50;100.00
19759;BME280;10038;42.662;23.278;2022-09-02T05:38:24;72856.72;;;19.59;100.00
19759;BME280;10038;42.662;23.278;2022-09-02T05:40:52;72865.47;;;19.66;100.00
19759;BME280;10038;42.662;23.278;2022-09-02T05:43:19;72869.53;;;19.70;100.00
19759;BME280;10038;42.662;23.278;2022-09-02T05:45:47;72888.91;;;19.89;100.00
19759;BME280;10038;42.662;23.278;2022-09-02T05:48:13;72899.66;;;19.93;99.29
19759;BME280;10038;42.662;23.278;2022-09-02T05:50:58;72908.09;;;20.06;98.11
19759;BME280;10038;42.662;23.278;2022-09-02T05:53:28;72916.41;;;20.15;97.78
19759;BME280;10038;42.662;23.278;2022-09-02T05:55:56;72923.34;;;20.12;97.24
19759;BME280;10038;42.662;23.278;2022-09-02T05:58:23;72919.91;;;20.18;95.86
19759;BME280;10038;42.662;23.278;2022-09-02T06:00:50;72924.84;;;20.18;94.57
19759;BME280;10038;42.662;23.278;2022-09-02T06:03:17;72908.53;;;20.03;94.96
19759;BME280;10038;42.662;23.278;2022-09-02T06:05:53;72923.25;;;20.19;95.14
19759;BME280;10038;42.662;23.278;2022-09-02T06:08:20;72933.59;;;20.25;93.53
19759;BME280;10038;42.662;23.278;2022-09-02T06:10:47;72936.81;;;20.33;92.82
19759;BME280;10038;42.662;23.278;2022-09-02T06:13:15;72936.94;;;20.26;92.40
19759;BME280;10038;42.662;23.278;2022-09-02T06:15:47;72936.81;;;20.33;91.88
19759;BME280;10038;42.662;23.278;2022-09-02T06:18:14;72950.47;;;20.40;91.63
19759;BME280;10038;42.662;23.278;2022-09-02T06:20:41;72954.56;;;20.43;90.86
19759;BME280;10038;42.662;23.278;2022-09-02T06:23:09;72954.13;;;20.45;91.15
19759;BME280;10038;42.662;23.278;2022-09-02T06:25:36;72961.13;;;20.51;91.28
19759;BME280;10038;42.662;23.278;2022-09-02T06:28:03;72931.00;;;20.28;91.03
19759;BME280;10038;42.662;23.278;2022-09-02T06:30:32;72952.22;;;20.41;91.36
19759;BME280;10038;42.662;23.278;2022-09-02T06:32:59;72959.66;;;20.45;90.68
19759;BME280;10038;42.662;23.278;2022-09-02T06:35:28;72960.09;;;20.53;91.18
19759;BME280;10038;42.662;23.278;2022-09-02T06:37:56;72965.78;;;20.55;91.27
19759;BME280;10038;42.662;23.278;2022-09-02T06:40:23;72972.03;;;20.58;90.73
19759;BME280;10038;42.662;23.278;2022-09-02T06:42:49;72989.34;;;20.71;90.78
19759;BME280;10038;42.662;23.278;2022-09-02T06:45:17;72965.03;;;20.52;90.86
19759;BME280;10038;42.662;23.278;2022-09-02T06:47:45;72983.66;;;20.69;90.57
19759;BME280;10038;42.662;23.278;2022-09-02T06:50:12;72975.53;;;20.62;90.69
19759;BME280;10038;42.662;23.278;2022-09-02T06:52:40;72928.50;;;20.23;91.59
19759;BME280;10038;42.662;23.278;2022-09-02T06:55:07;72942.91;;;20.33;93.12
19759;BME280;10038;42.662;23.278;2022-09-02T06:57:35;72936.50;;;20.28;94.30
19759;BME280;10038;42.662;23.278;2022-09-02T07:00:03;72955.47;;;20.49;93.42
19759;BME280;10038;42.662;23.278;2022-09-02T07:02:30;72946.72;;;20.41;91.61
19759;BME280;10038;42.662;23.278;2022-09-02T07:04:59;72970.00;;;20.62;92.21
19759;BME280;10038;42.662;23.278;2022-09-02T07:07:41;72983.81;;;20.71;91.76
19759;BME280;10038;42.662;23.278;2022-09-02T07:10:11;72983.41;;;20.73;91.50
19759;BME280;10038;42.662;23.278;2022-09-02T07:12:39;72966.78;;;20.54;90.02
19759;BME280;10038;42.662;23.278;2022-09-02T07:15:07;72995.94;;;20.89;90.35
19759;BME280;10038;42.662;23.278;2022-09-02T07:17:34;73004.38;;;20.91;88.41
19759;BME280;10038;42.662;23.278;2022-09-02T07:20:04;73033.53;;;21.16;89.63
19759;BME280;10038;42.662;23.278;2022-09-02T07:22:31;73070.50;;;21.44;89.00
19759;BME280;10038;42.662;23.278;2022-09-02T07:24:57;73091.66;;;21.64;87.90
19759;BME280;10038;42.662;23.278;2022-09-02T07:27:24;73075.19;;;21.48;85.35
19759;BME280;10038;42.662;23.278;2022-09-02T07:29:51;73105.78;;;21.79;84.11
19759;BME280;10038;42.662;23.278;2022-09-02T07:32:18;73140.78;;;22.09;83.41
19759;BME280;10038;42.662;23.278;2022-09-02T07:34:46;73136.13;;;22.05;83.53
19759;BME280;10038;42.662;23.278;2022-09-02T07:37:14;73127.09;;;22.02;82.37
19759;BME280;10038;42.662;23.278;2022-09-02T07:39:41;73143.97;;;22.07;82.18
19759;BME280;10038;42.662;23.278;2022-09-02T07:42:10;73149.81;;;22.12;82.00
19759;BME280;10038;42.662;23.278;2022-09-02T07:44:37;73143.09;;;22.11;83.01
19759;BME280;10038;42.662;23.278;2022-09-02T07:47:04;73129.72;;;22.00;82.38
19759;BME280;10038;42.662;23.278;2022-09-02T07:49:32;73178.09;;;22.42;81.15
19759;BME280;10038;42.662;23.278;2022-09-02T07:51:58;73150.09;;;22.17;81.01
19759;BME280;10038;42.662;23.278;2022-09-02T07:54:26;73143.09;;;22.11;82.42
19759;BME280;10038;42.662;23.278;2022-09-02T07:56:55;73138.75;;;22.12;81.96
19759;BME280;10038;42.662;23.278;2022-09-02T07:59:22;73151.72;;;22.16;82.19
19759;BME280;10038;42.662;23.278;2022-09-02T08:01:50;73139.34;;;22.13;81.37
19759;BME280;10038;42.662;23.278;2022-09-02T08:04:17;73145.44;;;22.13;82.29
19759;BME280;10038;42.662;23.278;2022-09-02T08:06:45;73137.72;;;22.04;82.15
19759;BME280;10038;42.662;23.278;2022-09-02T08:09:12;73115.13;;;21.87;82.41
19759;BME280;10038;42.662;23.278;2022-09-02T08:11:43;73139.63;;;22.08;81.70
19759;BME280;10038;42.662;23.278;2022-09-02T08:14:14;73129.44;;;22.04;81.75
19759;BME280;10038;42.662;23.278;2022-09-02T08:16:42;73125.94;;;22.01;81.02
19759;BME280;10038;42.662;23.278;2022-09-02T08:19:09;73114.53;;;21.87;81.69
19759;BME280;10038;42.662;23.278;2022-09-02T08:21:35;73076.63;;;21.54;83.04
19759;BME280;10038;42.662;23.278;2022-09-02T08:24:03;73088.59;;;21.69;82.99
19759;BME280;10038;42.662;23.278;2022-09-02T08:26:29;73080.44;;;21.62;83.32
19759;BME280;10038;42.662;23.278;2022-09-02T08:29:02;73076.63;;;21.54;83.03
19759;BME280;10038;42.662;23.278;2022-09-02T08:31:29;73067.16;;;21.43;82.99
19759;BME280;10038;42.662;23.278;2022-09-02T08:33:56;73081.03;;;21.62;83.31
19759;BME280;10038;42.662;23.278;2022-09-02T08:36:24;73098.78;;;21.73;83.08
19759;BME280;10038;42.662;23.278;2022-09-02T08:38:50;73107.81;;;21.76;83.32
19759;BME280;10038;42.662;23.278;2022-09-02T08:41:21;73100.25;;;21.79;83.09
19759;BME280;10038;42.662;23.278;2022-09-02T08:43:50;73092.38;;;21.67;82.85
19759;BME280;10038;42.662;23.278;2022-09-02T08:46:21;73100.25;;;21.79;82.80
19759;BME280;10038;42.662;23.278;2022-09-02T08:48:54;73121.84;;;21.98;81.43
19759;BME280;10038;42.662;23.278;2022-09-02T08:51:26;73134.94;;;22.04;81.68
19759;BME280;10038;42.662;23.278;2022-09-02T08:53:57;73161.78;;;22.27;81.18
19759;BME280;10038;42.662;23.278;2022-09-02T08:56:26;73171.97;;;22.31;81.12
19759;BME280;10038;42.662;23.278;2022-09-02T08:58:53;73157.41;;;22.28;79.19
19759;BME280;10038;42.662;23.278;2022-09-02T09:01:28;73193.56;;;22.60;78.35
19759;BME280;10038;42.662;23.278;2022-09-02T09:04:08;73185.38;;;22.53;77.72
19759;BME280;10038;42.662;23.278;2022-09-02T09:06:50;73192.09;;;22.54;78.94
19759;BME280;10038;42.662;23.278;2022-09-02T09:09:28;73195.59;;;22.57;78.09
19759;BME280;10038;42.662;23.278;2022-09-02T09:12:05;73237.31;;;22.98;77.52
19759;BME280;10038;42.662;23.278;2022-09-02T09:14:42;73294.81;;;23.42;77.06
19759;BME280;10038;42.662;23.278;2022-09-02T09:17:21;73291.59;;;23.44;77.18
19759;BME280;10038;42.662;23.278;2022-09-02T09:19:53;73322.81;;;23.67;75.84
19759;BME280;10038;42.662;23.278;2022-09-02T09:22:25;73312.91;;;23.58;74.60
19759;BME280;10038;42.662;23.278;2022-09-02T09:24:56;73347.94;;;23.88;74.60
19759;BME280;10038;42.662;23.278;2022-09-02T09:27:23;73398.44;;;24.37;72.36
19759;BME280;10038;42.662;23.278;2022-09-02T09:29:51;73449.28;;;24.81;68.92
19759;BME280;10038;42.662;23.278;2022-09-02T09:32:28;73488.41;;;25.14;66.75
19759;BME280;10038;42.662;23.278;2022-09-02T09:35:02;73606.06;;;26.18;65.26
19759;BME280;10038;42.662;23.278;2022-09-02T09:37:34;73713.84;;;27.04;63.42
19759;BME280;10038;42.662;23.278;2022-09-02T09:40:20;73802.06;;;27.87;59.78
19759;BME280;10038;42.662;23.278;2022-09-02T09:42:49;73806.75;;;27.91;58.62
19759;BME280;10038;42.662;23.278;2022-09-02T09:45:24;73752.19;;;27.42;60.36
19759;BME280;10038;42.662;23.278;2022-09-02T09:48:18;73618.34;;;26.29;62.40
19759;BME280;10038;42.662;23.278;2022-09-02T09:50:49;73602.69;;;26.08;64.31
19759;BME280;10038;42.662;23.278;2022-09-02T09:53:36;73536.34;;;25.56;66.39
19759;BME280;10038;42.662;23.278;2022-09-02T09:56:04;73542.50;;;25.56;68.21
19759;BME280;10038;42.662;23.278;2022-09-02T09:58:34;73539.84;;;25.59;66.23
19759;BME280;10038;42.662;23.278;2022-09-02T10:01:10;73482.72;;;25.12;66.65
19759;BME280;10038;42.662;23.278;2022-09-02T10:03:42;73625.22;;;26.32;65.38
19759;BME280;10038;42.662;23.278;2022-09-02T10:06:17;73563.25;;;25.79;65.47
19759;BME280;10038;42.662;23.278;2022-09-02T10:08:50;73566.44;;;25.77;65.58
19759;BME280;10038;42.662;23.278;2022-09-02T10:11:20;73612.94;;;26.22;65.64
19759;BME280;10038;42.662;23.278;2022-09-02T10:13:48;73638.22;;;26.46;64.50
19759;BME280;10038;42.662;23.278;2022-09-02T10:16:45;73683.28;;;26.85;63.85
19759;BME280;10038;42.662;23.278;2022-09-02T10:19:23;73714.28;;;27.12;60.34
19759;BME280;10038;42.662;23.278;2022-09-02T10:22:08;73731.84;;;27.27;60.33
19759;BME280;10038;42.662;23.278;2022-09-02T10:24:59;73759.81;;;27.48;60.39
19759;BME280;10038;42.662;23.278;2022-09-02T10:27:36;73685.47;;;26.84;61.73
19759;BME280;10038;42.662;23.278;2022-09-02T10:30:10;73604.78;;;26.15;65.76
19759;BME280;10038;42.662;23.278;2022-09-02T10:35:42;73563.81;;;25.79;67.80
19759;BME280;10038;42.662;23.278;2022-09-02T10:38:22;73572.88;;;25.83;67.59
19759;BME280;10038;42.662;23.278;2022-09-02T10:40:56;73508.88;;;25.32;68.24
19759;BME280;10038;42.662;23.278;2022-09-02T10:43:35;73552.72;;;25.70;67.52
19759;BME280;10038;42.662;23.278;2022-09-02T10:46:16;73593.94;;;26.01;66.43
19759;BME280;10038;42.662;23.278;2022-09-02T10:48:52;73609.13;;;26.23;65.29
19759;BME280;10038;42.662;23.278;2022-09-02T10:51:43;73622.31;;;26.30;64.34
19759;BME280;10038;42.662;23.278;2022-09-02T10:54:36;73650.38;;;26.54;64.84
19759;BME280;10038;42.662;23.278;2022-09-02T10:57:07;73697.19;;;26.94;64.12
19759;BME280;10038;42.662;23.278;2022-09-02T10:59:39;73685.47;;;26.84;65.21
19759;BME280;10038;42.662;23.278;2022-09-02T11:02:12;73720.72;;;27.17;62.78
19759;BME280;10038;42.662;23.278;2022-09-02T11:04:45;73703.16;;;27.02;63.70
19759;BME280;10038;42.662;23.278;2022-09-02T11:07:18;73706.69;;;27.05;61.39
19759;BME280;10038;42.662;23.278;2022-09-02T11:09:49;73765.06;;;27.53;62.48
19759;BME280;10038;42.662;23.278;2022-09-02T11:12:22;73806.31;;;27.93;61.56
19759;BME280;10038;42.662;23.278;2022-09-02T11:14:58;73767.41;;;27.55;62.95
19759;BME280;10038;42.662;23.278;2022-09-02T11:17:31;73732.28;;;27.25;61.97
19759;BME280;10038;42.662;23.278;2022-09-02T11:20:06;73733.00;;;27.28;62.90
19759;BME280;10038;42.662;23.278;2022-09-02T11:22:41;73726.41;;;27.20;61.42
19759;BME280;10038;42.662;23.278;2022-09-02T11:25:18;73746.44;;;27.39;61.89
19759;BME280;10038;42.662;23.278;2022-09-02T11:27:53;73853.59;;;28.32;59.53
19759;BME280;10038;42.662;23.278;2022-09-02T11:30:23;73978.41;;;29.39;54.09
19759;BME280;10038;42.662;23.278;2022-09-02T11:32:56;73975.31;;;29.34;54.88
19759;BME280;10038;42.662;23.278;2022-09-02T11:35:26;73941.31;;;29.05;55.26
19759;BME280;10038;42.662;23.278;2022-09-02T11:37:58;73910.44;;;28.81;55.70
19759;BME280;10038;42.662;23.278;2022-09-02T11:40:30;73871.75;;;28.47;56.11
19759;BME280;10038;42.662;23.278;2022-09-02T11:43:23;73834.28;;;28.15;57.35
19759;BME280;10038;42.662;23.278;2022-09-02T11:46:16;73807.34;;;27.92;57.36
19759;BME280;10038;42.662;23.278;2022-09-02T11:52:07;73824.19;;;28.04;58.56
19759;BME280;10038;42.662;23.278;2022-09-02T11:54:46;73779.97;;;27.71;59.72
19759;BME280;10038;42.662;23.278;2022-09-02T11:57:22;73720.56;;;27.15;61.01
19759;BME280;10038;42.662;23.278;2022-09-02T12:00:12;73710.06;;;27.06;61.96
19759;BME280;10038;42.662;23.278;2022-09-02T12:02:44;73676.09;;;26.76;63.58
19759;BME280;10038;42.662;23.278;2022-09-02T12:05:44;73698.63;;;27.01;63.03
19759;BME280;10038;42.662;23.278;2022-09-02T12:29:50;73837.94;;;28.21;57.71
19759;BME280;10038;42.662;23.278;2022-09-02T12:35:48;73922.72;;;28.91;55.54
19759;BME280;10038;42.662;23.278;2022-09-02T12:38:31;73868.81;;;28.45;57.50
19759;BME280;10038;42.662;23.278;2022-09-02T12:41:23;73839.41;;;28.17;57.10
19759;BME280;10038;42.662;23.278;2022-09-02T12:44:00;73804.41;;;27.89;58.51
19759;BME280;10038;42.662;23.278;2022-09-02T12:46:43;73774.41;;;27.61;59.22
19759;BME280;10038;42.662;23.278;2022-09-02T12:49:31;73719.41;;;27.14;61.34
19759;BME280;10038;42.662;23.278;2022-09-02T12:52:02;73681.97;;;26.81;61.52
19759;BME280;10038;42.662;23.278;2022-09-02T12:54:35;73834.16;;;28.13;57.76
19759;BME280;10038;42.662;23.278;2022-09-02T12:57:07;73728.91;;;27.24;60.10
19759;BME280;10038;42.662;23.278;2022-09-02T12:59:37;73699.66;;;26.99;61.58
19759;BME280;10038;42.662;23.278;2022-09-02T13:02:27;73675.66;;;26.78;63.37
19759;BME280;10038;42.662;23.278;2022-09-02T13:05:09;73619.97;;;26.28;63.56
19759;BME280;10038;42.662;23.278;2022-09-02T13:08:10;73593.03;;;26.05;64.90
19759;BME280;10038;42.662;23.278;2022-09-02T13:14:24;73561.47;;;25.77;66.90
19759;BME280;10038;42.662;23.278;2022-09-02T13:17:11;73480.25;;;25.07;68.92
19759;BME280;10038;42.662;23.278;2022-09-02T13:19:57;73443.41;;;24.76;70.51
19759;BME280;10038;42.662;23.278;2022-09-02T13:23:14;73406.03;;;24.43;71.99
19759;BME280;10038;42.662;23.278;2022-09-02T13:28:59;73383.84;;;24.24;73.58
19759;BME280;10038;42.662;23.278;2022-09-02T13:31:32;73362.22;;;24.05;74.04
19759;BME280;10038;42.662;23.278;2022-09-02T13:34:01;73339.75;;;23.81;77.65
19759;BME280;10038;42.662;23.278;2022-09-02T13:36:31;73290.16;;;23.38;86.41
19759;BME280;10038;42.662;23.278;2022-09-02T13:39:12;73253.06;;;23.11;88.54
19759;BME280;10038;42.662;23.278;2022-09-02T13:41:38;73250.47;;;23.04;90.71
19759;BME280;10038;42.662;23.278;2022-09-02T13:44:07;73199.09;;;22.60;91.54